Terminal Aerodrome Forecast
Issued by NWS Jackson, MS

Current Version | Previous Version | Text Only | Print | Product List | Glossary On
Versions: 1 2 3 4 5 6 7 8 9 10 11 12
000
FTUS44 KJAN 011722
TAFJAN
TAF
KJAN 011722Z 0118/0218 07005KT P6SM VCSH BKN050
     FM020100 VRB03KT P6SM SCT250
     FM021500 33003KT P6SM SCT050=

USA.gov is the U.S. government's official web portal to all federal, state and local government web resources and services.